Time;durP1;ratioP1;P1;durP2;ratioP2;P2;SDS_P1;SDS_P2;PMS_P1;PMS_P2;Temp;Humidity;BMP_temperature;BMP_pressure;BME280_temperature;BME280_humidity;BME280_pressure;Samples;Min_cycle;Max_cycle;Signal;HPM_P1;HPM_P2
2022/11/09 00:01:31;;;;;;;114.60;24.98;;;;;;;12.27;59.85;100205.38;4416909;32;20116;-88
2022/11/09 00:03:57;;;;;;;112.10;26.12;;;;;;;12.32;59.86;100205.25;4412774;32;20132;-88
2022/11/09 00:06:23;;;;;;;90.93;23.15;;;;;;;12.30;59.86;100197.44;4425647;32;20107;-89
2022/11/09 00:08:49;;;;;;;96.93;23.35;;;;;;;12.33;59.85;100197.38;4411797;32;20093;-88
2022/11/09 00:11:14;;;;;;;75.70;24.08;;;;;;;12.28;59.85;100196.63;4411445;32;20161;-88
2022/11/09 00:13:40;;;;;;;77.93;22.80;;;;;;;12.15;59.85;100203.16;4413117;32;27726;-87
2022/11/09 00:16:06;;;;;;;79.55;25.27;;;;;;;12.21;59.85;100195.97;4412922;32;20156;-87
2022/11/09 00:18:33;;;;;;;102.57;24.10;;;;;;;12.21;59.84;100200.34;4411192;32;20808;-88
2022/11/09 00:20:59;;;;;;;115.80;24.20;;;;;;;12.14;59.85;100193.63;4409997;32;20559;-88
2022/11/09 00:23:24;;;;;;;63.10;23.15;;;;;;;12.09;59.85;100191.16;4413085;32;36972;-88
2022/11/09 00:25:49;;;;;;;84.75;24.37;;;;;;;12.19;59.84;100194.31;4423160;32;25111;-88
2022/11/09 00:28:15;;;;;;;86.93;21.10;;;;;;;12.19;59.84;100199.53;4426197;32;27589;-88
2022/11/09 00:30:40;;;;;;;68.87;22.52;;;;;;;12.23;59.85;100190.72;4413901;32;20120;-88
2022/11/09 00:33:06;;;;;;;109.07;24.45;;;;;;;12.18;59.85;100196.09;4438690;32;20089;-87
2022/11/09 00:35:31;;;;;;;76.75;21.10;;;;;;;12.29;59.86;100196.56;4453458;32;20227;-88
2022/11/09 00:37:57;;;;;;;61.95;21.20;;;;;;;12.24;59.85;100197.63;4411759;32;20097;-88
2022/11/09 00:40:22;;;;;;;88.97;23.50;;;;;;;12.24;59.85;100197.63;4426116;32;33077;-88
2022/11/09 00:42:47;;;;;;;133.87;23.12;;;;;;;12.17;59.85;100194.38;4413908;32;23981;-88
2022/11/09 00:45:13;;;;;;;91.72;21.65;;;;;;;12.23;59.85;100195.94;4414364;32;32862;-88
2022/11/09 00:47:38;;;;;;;91.82;22.27;;;;;;;12.28;59.86;100194.88;4437967;32;20062;-87
2022/11/09 00:50:04;;;;;;;91.72;22.52;;;;;;;12.14;59.85;100191.00;4428638;32;38264;-88
2022/11/09 00:52:30;;;;;;;80.72;21.45;;;;;;;12.27;59.85;100187.09;4433321;32;20169;-87
2022/11/09 00:54:55;;;;;;;105.63;22.27;;;;;;;12.18;59.85;100183.03;4427365;32;20437;-88
2022/11/09 00:57:20;;;;;;;106.53;23.42;;;;;;;12.32;59.85;100189.59;4426774;32;22827;-88
2022/11/09 00:59:46;;;;;;;104.90;24.52;;;;;;;12.09;59.84;100187.69;4425847;32;30835;-88
2022/11/09 01:02:11;;;;;;;164.05;23.05;;;;;;;12.20;59.84;100181.22;4413688;32;20535;-87
2022/11/09 01:04:36;;;;;;;121.25;22.85;;;;;;;12.24;59.85;100181.97;4436214;32;35320;-87
2022/11/09 01:07:02;;;;;;;145.38;21.60;;;;;;;12.14;59.85;100185.78;4425295;32;20393;-88
2022/11/09 01:09:27;;;;;;;112.28;21.92;;;;;;;12.14;59.85;100177.97;4426180;32;20117;-88
2022/11/09 01:11:53;;;;;;;118.68;21.48;;;;;;;12.13;59.84;100174.50;4452812;32;20093;-89
2022/11/09 01:14:18;;;;;;;87.62;21.77;;;;;;;12.02;59.84;100176.56;4437855;32;26159;-89
2022/11/09 01:16:44;;;;;;;135.88;23.35;;;;;;;12.17;59.85;100178.72;4433586;32;20141;-89
2022/11/09 01:19:09;;;;;;;66.90;21.00;;;;;;;12.14;59.85;100170.13;4422753;32;20176;-88
2022/11/09 01:21:34;;;;;;;107.57;21.12;;;;;;;12.07;59.84;100173.84;4412281;32;20159;-88
2022/11/09 01:24:00;;;;;;;133.12;22.52;;;;;;;12.19;59.84;100170.84;4411534;32;34226;-89
2022/11/09 01:26:26;;;;;;;147.37;21.92;;;;;;;12.16;59.85;100174.41;4422615;32;20507;-88
2022/11/09 01:28:51;;;;;;;107.93;20.55;;;;;;;12.16;59.85;100173.53;4425068;32;20129;-88
2022/11/09 01:31:17;;;;;;;132.98;21.52;;;;;;;12.10;59.84;100168.53;4409568;32;20659;-88
2022/11/09 01:33:43;;;;;;;128.05;22.70;;;;;;;12.16;59.85;100163.09;4436728;32;20097;-89
2022/11/09 01:36:14;;;;;;;183.50;23.95;;;;;;;12.06;59.85;100161.66;4412405;32;20089;-89
2022/11/09 01:38:39;;;;;;;243.25;23.05;;;;;;;12.14;59.85;100159.69;4410717;32;20113;-90
2022/11/09 01:41:05;;;;;;;145.93;22.00;;;;;;;12.07;59.84;100163.41;4411573;32;35607;-88
2022/11/09 01:43:30;;;;;;;103.43;22.17;;;;;;;12.13;59.84;100164.06;4422592;32;20112;-89
2022/11/09 01:46:18;;;;;;;106.37;18.90;;;;;;;12.16;59.85;100155.28;4411966;32;20117;-88
2022/11/09 01:48:53;;;;;;;139.57;21.35;;;;;;;12.15;59.85;100150.97;4410015;32;20132;-88
2022/11/09 01:51:36;;;;;;;99.60;19.42;;;;;;;12.09;59.84;100153.78;4439271;32;20105;-89
2022/11/09 01:54:19;;;;;;;114.25;20.27;;;;;;;12.03;59.84;100149.59;4423916;32;20168;-89
2022/11/09 01:56:45;;;;;;;101.18;19.95;;;;;;;11.95;59.83;100148.97;4414177;32;20124;-89
2022/11/09 01:59:13;;;;;;;128.90;20.42;;;;;;;11.81;59.82;100154.59;4399495;32;20097;-88
2022/11/09 02:01:38;;;;;;;107.75;19.83;;;;;;;11.94;59.83;100144.66;4399858;32;20630;-88
2022/11/09 02:04:12;;;;;;;194.73;19.87;;;;;;;11.85;59.83;100150.19;4424154;32;29921;-88
2022/11/09 02:06:37;;;;;;;93.37;18.15;;;;;;;11.98;59.83;100146.28;4412396;32;20473;-88
2022/11/09 02:09:15;;;;;;;189.80;21.70;;;;;;;11.92;59.84;100144.72;4423389;32;20151;-89
2022/11/09 02:11:40;;;;;;;102.72;18.48;;;;;;;11.94;59.83;100135.09;4425417;32;20144;-88
2022/11/09 02:14:06;;;;;;;99.15;18.00;;;;;;;11.97;59.83;100139.34;4425115;32;24970;-88
2022/11/09 02:16:31;;;;;;;77.28;18.85;;;;;;;11.98;59.83;100133.22;4400618;32;20144;-88
2022/11/09 02:18:57;;;;;;;80.47;16.90;;;;;;;11.97;59.83;100137.59;4424819;32;20133;-89
2022/11/09 02:21:25;;;;;;;78.50;17.73;;;;;;;11.99;59.85;100142.75;4411952;32;20123;-89
2022/11/09 02:23:50;;;;;;;140.05;18.25;;;;;;;11.84;59.83;100138.87;4435007;32;20098;-89
2022/11/09 02:26:23;;;;;;;101.35;16.80;;;;;;;11.79;59.83;100138.16;4424030;32;20090;-89
2022/11/09 02:28:48;;;;;;;146.43;18.05;;;;;;;11.84;59.84;100138.87;4421261;32;20402;-89
2022/11/09 02:31:14;;;;;;;157.57;21.65;;;;;;;11.86;59.83;100129.25;4422465;32;22374;-89
2022/11/09 02:33:53;;;;;;;115.37;16.10;;;;;;;11.79;59.83;100132.09;4412023;32;20147;-89
2022/11/09 02:36:18;;;;;;;118.70;17.67;;;;;;;11.80;59.82;100129.44;4435719;32;20098;-89
2022/11/09 02:38:44;;;;;;;107.07;18.62;;;;;;;11.77;59.83;100131.25;4411863;32;20438;-89
2022/11/09 02:41:09;;;;;;;88.45;18.15;;;;;;;11.74;59.82;100134.81;4411355;32;32245;-87
2022/11/09 02:43:35;;;;;;;109.57;16.50;;;;;;;11.70;59.82;100138.41;4423822;32;32273;-88
2022/11/09 02:46:00;;;;;;;122.93;20.20;;;;;;;11.67;59.82;100135.91;4422124;32;20098;-88
2022/11/09 02:48:25;;;;;;;95.30;15.38;;;;;;;11.60;59.81;100131.78;4423804;32;21788;-90
2022/11/09 02:50:51;;;;;;;92.37;17.08;;;;;;;11.51;59.81;100126.81;4434499;32;22794;-89
2022/11/09 02:53:16;;;;;;;94.22;15.48;;;;;;;11.60;59.81;100118.75;4409407;32;20486;-89
2022/11/09 02:55:42;;;;;;;107.82;16.55;;;;;;;11.35;59.80;100109.03;4410983;32;33241;-90
2022/11/09 02:58:07;;;;;;;91.03;16.05;;;;;;;11.37;59.81;100115.06;4405765;32;26734;-89
2022/11/09 03:00:32;;;;;;;74.15;15.57;;;;;;;11.35;59.80;100129.88;4434989;32;20173;-89
2022/11/09 03:02:58;;;;;;;69.50;16.23;;;;;;;11.49;59.81;100131.22;4408954;32;23442;-89
2022/11/09 03:05:24;;;;;;;97.55;17.33;;;;;;;11.33;59.80;100133.41;4423940;32;20086;-88
2022/11/09 03:07:49;;;;;;;82.03;16.40;;;;;;;11.30;59.79;100134.38;4423699;32;32554;-89
2022/11/09 03:10:15;;;;;;;119.30;17.60;;;;;;;11.40;59.81;100137.59;4424452;32;20098;-89
2022/11/09 03:12:40;;;;;;;64.25;15.82;;;;;;;11.41;59.81;100138.44;4436370;32;20152;-86
2022/11/09 03:15:07;;;;;;;103.32;15.75;;;;;;;11.44;59.80;100144.41;4421335;32;23977;-88
2022/11/09 03:17:32;;;;;;;81.57;17.08;;;;;;;11.35;59.80;100140.28;4422747;32;20109;-89
2022/11/09 03:19:58;;;;;;;114.53;19.75;;;;;;;11.37;59.81;100146.34;4427157;32;20093;-89
2022/11/09 03:22:23;;;;;;;103.03;14.73;;;;;;;11.48;59.81;100148.63;4426287;32;30622;-87
2022/11/09 03:24:48;;;;;;;133.15;17.10;;;;;;;11.44;59.80;100148.78;4454121;32;20139;-88
2022/11/09 03:27:14;;;;;;;107.53;15.43;;;;;;;11.50;59.81;100145.97;4427011;32;20124;-89
2022/11/09 03:29:39;;;;;;;141.98;16.02;;;;;;;11.57;59.81;100145.72;4425354;32;20137;-89
2022/11/09 03:32:05;;;;;;;148.32;19.05;;;;;;;11.40;59.81;100140.19;4430654;32;25125;-88
2022/11/09 03:34:30;;;;;;;163.18;17.27;;;;;;;11.43;59.80;100149.66;4440863;32;20111;-87
2022/11/09 03:36:56;;;;;;;115.55;14.35;;;;;;;11.51;59.81;100145.06;4415469;32;21077;-88
2022/11/09 03:39:21;;;;;;;130.30;17.10;;;;;;;11.41;59.81;100138.44;4452756;32;27856;-88
2022/11/09 03:41:47;;;;;;;177.62;17.05;;;;;;;11.36;59.80;100142.03;4455805;32;20073;-89
2022/11/09 03:44:12;;;;;;;168.13;15.43;;;;;;;11.41;59.81;100144.50;4435196;32;20123;-89
2022/11/09 03:46:37;;;;;;;147.40;16.55;;;;;;;11.39;59.81;100141.09;4430996;32;20152;-89
2022/11/09 03:49:03;;;;;;;165.05;17.95;;;;;;;11.44;59.81;100138.34;4426959;32;20374;-88
2022/11/09 03:51:28;;;;;;;120.70;15.70;;;;;;;11.33;59.80;100139.50;4403427;32;23251;-90
2022/11/09 03:53:54;;;;;;;164.55;16.65;;;;;;;11.44;59.80;100138.34;4434583;32;32880;-90
2022/11/09 03:56:19;;;;;;;189.35;17.75;;;;;;;11.42;59.81;100129.72;4417051;32;20114;-90
2022/11/09 03:58:44;;;;;;;159.65;16.58;;;;;;;11.27;59.80;100129.25;4430876;32;26288;-90
2022/11/09 04:01:10;;;;;;;149.35;17.40;;;;;;;11.29;59.79;100135.25;4424307;32;36907;-90
2022/11/09 04:03:36;;;;;;;191.82;17.00;;;;;;;11.34;59.80;100129.91;4422291;32;20497;-90
2022/11/09 04:06:01;;;;;;;86.57;15.70;;;;;;;11.37;59.80;100135.06;4418390;32;20737;-89
2022/11/09 04:08:26;;;;;;;130.60;17.15;;;;;;;11.27;59.79;100134.47;4403428;32;20384;-90
2022/11/09 04:10:52;;;;;;;95.87;15.48;;;;;;;11.23;59.80;100134.59;4412664;32;35585;-89
2022/11/09 04:13:17;;;;;;;134.52;18.02;;;;;;;11.27;59.80;100133.59;4407612;32;25723;-90
2022/11/09 04:15:43;;;;;;;67.32;16.33;;;;;;;11.35;59.81;100131.63;4434696;32;20160;-90
2022/11/09 04:18:10;;;;;;;130.18;15.32;;;;;;;11.31;59.80;100130.88;4439396;32;20131;-89
2022/11/09 04:20:36;;;;;;;196.50;16.87;;;;;;;11.37;59.81;100138.53;4414141;32;20148;-91
2022/11/09 04:23:02;;;;;;;104.75;14.95;;;;;;;11.20;59.79;100127.72;4410913;32;20230;-91
2022/11/09 04:25:30;;;;;;;118.80;17.92;;;;;;;11.28;59.80;100130.09;4406701;32;20110;-90
2022/11/09 04:27:56;;;;;;;97.40;15.48;;;;;;;11.27;59.80;100129.25;4413871;32;20113;-88
2022/11/09 04:30:22;;;;;;;111.40;15.88;;;;;;;11.35;59.80;100129.00;4426348;32;20397;-88
2022/11/09 04:32:47;;;;;;;156.15;17.70;;;;;;;11.28;59.80;100130.97;4439284;32;20085;-87
2022/11/09 04:35:12;;;;;;;148.82;16.73;;;;;;;11.26;59.80;100131.91;4453409;32;20157;-88
2022/11/09 04:37:38;;;;;;;119.55;15.55;;;;;;;11.24;59.80;100129.34;4439367;32;20109;-88
2022/11/09 04:40:04;;;;;;;52.17;14.05;;;;;;;11.31;59.80;100125.66;4425687;32;30539;-89
2022/11/09 04:42:29;;;;;;;152.52;17.58;;;;;;;11.42;59.81;100124.50;4413615;32;20160;-88
2022/11/09 04:44:54;;;;;;;86.65;14.13;;;;;;;11.29;59.79;100124.84;4425773;32;25752;-91
2022/11/09 04:47:20;;;;;;;67.75;14.05;;;;;;;11.32;59.80;100121.28;4425815;32;24884;-88
2022/11/09 04:49:45;;;;;;;123.30;17.17;;;;;;;11.23;59.80;100122.41;4439291;32;20410;-88
2022/11/09 04:52:10;;;;;;;92.12;15.32;;;;;;;11.14;59.79;100121.84;4424930;32;26626;-89
2022/11/09 04:54:36;;;;;;;169.65;16.70;;;;;;;11.18;59.79;100124.31;4425748;32;26402;-90
2022/11/09 04:57:01;;;;;;;174.07;20.98;;;;;;;11.16;59.80;100127.88;4412913;32;24707;-89
2022/11/09 04:59:27;;;;;;;116.28;15.32;;;;;;;11.27;59.80;100124.03;4413208;32;20160;-89
2022/11/09 05:01:52;;;;;;;123.38;15.07;;;;;;;11.27;59.80;100118.81;4425330;32;20096;-88
2022/11/09 05:04:17;;;;;;;178.30;16.20;;;;;;;11.17;59.79;100121.75;4453169;32;20437;-86
2022/11/09 05:06:43;;;;;;;105.97;15.48;;;;;;;11.19;59.79;100123.41;4425338;32;23980;-89
2022/11/09 05:09:08;;;;;;;109.80;13.55;;;;;;;11.27;59.80;100113.62;4425783;32;20198;-88
2022/11/09 05:11:34;;;;;;;91.95;14.30;;;;;;;11.14;59.79;100120.09;4412107;32;20088;-89
2022/11/09 05:14:00;;;;;;;157.37;16.05;;;;;;;11.12;59.79;100119.28;4400338;32;20149;-89
2022/11/09 05:16:26;;;;;;;134.00;16.15;;;;;;;11.04;59.78;100113.41;4424997;32;20116;-88
2022/11/09 05:18:51;;;;;;;162.68;16.67;;;;;;;11.11;59.79;100112.34;4439100;32;20114;-89
2022/11/09 05:21:17;;;;;;;113.93;14.07;;;;;;;11.07;59.79;100105.50;4425014;32;30156;-88
2022/11/09 05:23:57;;;;;;;206.30;17.17;;;;;;;10.93;59.78;100112.88;4438818;32;20125;-88
2022/11/09 05:26:27;;;;;;;156.52;17.45;;;;;;;10.99;59.79;100110.94;4429080;32;20119;-88
2022/11/09 05:28:52;;;;;;;153.33;14.97;;;;;;;10.98;59.78;100124.00;4426282;32;20084;-89
2022/11/09 05:31:18;;;;;;;139.18;17.50;;;;;;;10.98;59.78;100124.00;4438064;32;20203;-88
2022/11/09 05:33:43;;;;;;;118.37;16.73;;;;;;;10.95;59.78;100124.09;4412889;32;20120;-88
2022/11/09 05:36:09;;;;;;;159.50;17.83;;;;;;;10.92;59.78;100140.66;4412020;32;34402;-88
2022/11/09 05:38:34;;;;;;;135.18;17.50;;;;;;;10.94;59.78;100132.81;4425300;32;20076;-88
2022/11/09 05:40:59;;;;;;;95.70;14.87;;;;;;;10.98;59.78;100129.22;4445933;32;20169;-86
2022/11/09 05:43:25;;;;;;;127.60;19.60;;;;;;;10.92;59.78;100145.87;4456363;32;30300;-88
2022/11/09 05:45:50;;;;;;;122.68;17.02;;;;;;;10.99;59.79;100137.00;4426269;32;20113;-92
2022/11/09 05:48:16;;;;;;;143.48;16.37;;;;;;;10.93;59.78;100128.50;4413756;32;20178;-92
2022/11/09 05:50:41;;;;;;;143.73;17.23;;;;;;;10.90;59.78;100136.41;4421044;32;20076;-92
2022/11/09 05:53:07;;;;;;;91.30;16.65;;;;;;;10.96;59.78;100137.09;4421318;32;20131;-93
2022/11/09 05:55:32;;;;;;;69.05;18.25;;;;;;;11.00;59.79;100137.84;4422876;32;20124;-92
2022/11/09 05:57:58;;;;;;;77.25;15.73;;;;;;;10.96;59.78;100138.81;4424471;32;21932;-93
2022/11/09 06:00:23;;;;;;;73.78;16.02;;;;;;;10.99;59.79;100143.94;4414330;32;20112;-93
2022/11/09 06:02:49;;;;;;;92.53;15.95;;;;;;;10.82;59.78;100149.59;4408327;32;20105;-92
2022/11/09 06:05:15;;;;;;;100.97;16.08;;;;;;;10.91;59.77;100145.91;4415193;32;20124;-89
2022/11/09 06:07:40;;;;;;;75.35;14.68;;;;;;;10.91;59.77;100135.50;4416436;32;20893;-93
2022/11/09 06:10:07;;;;;;;94.05;15.77;;;;;;;10.99;59.79;100133.53;4416555;32;20126;-90
2022/11/09 06:12:32;;;;;;;105.22;15.98;;;;;;;10.95;59.78;100139.72;4427828;32;20237;-92
2022/11/09 06:14:57;;;;;;;89.32;15.10;;;;;;;10.97;59.78;100138.78;4405036;32;20153;-91
2022/11/09 06:17:23;;;;;;;131.32;18.25;;;;;;;10.94;59.78;100140.62;4415161;32;20480;-92
2022/11/09 06:19:48;;;;;;;68.87;14.77;;;;;;;10.95;59.78;100152.75;4427871;32;20167;-91
2022/11/09 06:22:14;;;;;;;106.15;15.48;;;;;;;11.00;59.79;100145.66;4415174;32;20155;-93
2022/11/09 06:24:39;;;;;;;76.85;15.07;;;;;;;10.97;59.78;100148.34;4427733;32;20125;-92
2022/11/09 06:27:05;;;;;;;61.47;15.38;;;;;;;10.85;59.77;100156.47;4414876;32;20161;-90
2022/11/09 06:29:30;;;;;;;75.03;17.70;;;;;;;10.87;59.78;100149.47;4427789;32;20140;-90
2022/11/09 06:31:55;;;;;;;98.40;16.27;;;;;;;10.74;59.77;100157.62;4416616;32;20202;-92
2022/11/09 06:34:21;;;;;;;129.40;17.10;;;;;;;10.82;59.77;100157.41;4430440;32;20140;-92
2022/11/09 06:36:46;;;;;;;111.35;15.40;;;;;;;10.86;59.77;100160.78;4429813;32;20081;-91
2022/11/09 06:39:11;;;;;;;124.20;17.98;;;;;;;10.79;59.77;100154.03;4422797;32;34262;-92
2022/11/09 06:41:37;;;;;;;144.57;16.70;;;;;;;10.88;59.78;100153.78;4419994;32;20145;-91
2022/11/09 06:44:04;;;;;;;106.78;16.05;;;;;;;10.83;59.77;100148.72;4412676;32;28348;-91
2022/11/09 06:46:29;;;;;;;89.37;14.87;;;;;;;10.84;59.79;100146.97;4413931;32;20098;-91
2022/11/09 06:48:55;;;;;;;109.32;15.80;;;;;;;10.80;59.78;100154.00;4415757;32;20181;-91
2022/11/09 06:51:20;;;;;;;108.80;18.45;;;;;;;10.77;59.78;100160.16;4405248;32;29749;-92
2022/11/09 06:53:45;;;;;;;99.60;15.82;;;;;;;10.60;59.76;100164.94;4396101;32;21080;-91
2022/11/09 06:56:11;;;;;;;70.78;14.73;;;;;;;10.69;59.76;100163.84;4404913;32;27077;-91
2022/11/09 06:58:36;;;;;;;63.10;14.05;;;;;;;10.74;59.77;100162.84;4399992;32;20101;-91
2022/11/09 07:01:12;;;;;;;60.10;13.30;;;;;;;10.77;59.78;100167.09;4405950;32;22174;-92
2022/11/09 07:03:38;;;;;;;58.38;15.13;;;;;;;10.81;59.78;100157.47;4403353;32;20105;-91
2022/11/09 07:06:07;;;;;;;75.20;14.70;;;;;;;10.77;59.78;100151.47;4405804;32;20150;-92
2022/11/09 07:08:33;;;;;;;61.10;14.70;;;;;;;10.75;59.77;100151.53;4415188;32;20069;-92
2022/11/09 07:11:05;;;;;;;66.93;14.55;;;;;;;10.73;59.77;100155.06;4428015;32;20451;-92
2022/11/09 07:13:30;;;;;;;59.97;13.50;;;;;;;10.77;59.78;100165.34;4420620;32;20096;-92
2022/11/09 07:15:56;;;;;;;49.70;13.20;;;;;;;10.63;59.77;100157.03;4401190;32;20151;-91
2022/11/09 07:18:21;;;;;;;40.83;13.38;;;;;;;10.57;59.76;100157.19;4415596;32;30259;-92
2022/11/09 07:20:46;;;;;;;41.97;12.77;;;;;;;10.50;59.76;100157.41;4414417;32;23030;-92
2022/11/09 07:23:12;;;;;;;53.20;12.98;;;;;;;10.66;59.76;100164.78;4413088;32;20187;-92
2022/11/09 07:25:37;;;;;;;50.12;12.80;;;;;;;10.63;59.77;100169.19;4429059;32;24678;-91
2022/11/09 07:28:04;;;;;;;74.05;15.98;;;;;;;10.73;59.77;100166.34;4431061;32;20535;-92
2022/11/09 07:30:29;;;;;;;59.90;14.45;;;;;;;10.71;59.77;100162.91;4412525;32;20105;-92
2022/11/09 07:32:58;;;;;;;49.85;12.15;;;;;;;10.61;59.76;100163.19;4428633;32;20093;-92
2022/11/09 07:35:23;;;;;;;50.08;14.38;;;;;;;10.64;59.77;100163.94;4425660;32;20085;-92
2022/11/09 07:37:48;;;;;;;49.40;14.20;;;;;;;10.54;59.75;100165.09;4427478;32;20119;-91
2022/11/09 07:40:14;;;;;;;42.33;12.23;;;;;;;10.52;59.75;100161.69;4427153;32;20131;-91
2022/11/09 07:42:39;;;;;;;54.92;13.07;;;;;;;10.74;59.77;100160.22;4424814;32;20113;-91
2022/11/09 07:45:05;;;;;;;63.22;14.50;;;;;;;10.62;59.76;100164.88;4411961;32;29523;-92
2022/11/09 07:47:31;;;;;;;72.15;13.90;;;;;;;10.80;59.77;100167.03;4412083;32;20082;-91
2022/11/09 07:49:56;;;;;;;46.08;14.35;;;;;;;10.90;59.78;100160.69;4412105;32;20152;-91
2022/11/09 07:52:21;;;;;;;59.47;13.38;;;;;;;10.87;59.78;100170.31;4411727;32;25087;-92
2022/11/09 07:54:47;;;;;;;41.10;12.50;;;;;;;10.74;59.77;100175.84;4414504;32;20140;-92
2022/11/09 07:57:12;;;;;;;40.22;13.82;;;;;;;10.86;59.78;100166.00;4412064;32;20148;-91
2022/11/09 07:59:38;;;;;;;43.13;15.35;;;;;;;10.83;59.77;100158.28;4425081;32;20440;-92
2022/11/09 08:02:04;;;;;;;46.40;14.07;;;;;;;10.91;59.77;100166.75;4414722;32;20169;-91
2022/11/09 08:04:29;;;;;;;43.08;14.70;;;;;;;10.95;59.78;100163.16;4414251;32;25003;-91
2022/11/09 08:06:54;;;;;;;38.55;14.07;;;;;;;10.92;59.78;100169.31;4426476;32;26883;-91
2022/11/09 08:09:20;;;;;;;48.33;15.23;;;;;;;11.00;59.79;100156.09;4413792;32;28683;-92
2022/11/09 08:11:45;;;;;;;49.55;16.42;;;;;;;10.95;59.78;100160.56;4414306;32;20120;-92
2022/11/09 08:14:10;;;;;;;45.60;13.98;;;;;;;11.04;59.78;100152.50;4425973;32;20109;-92
2022/11/09 08:16:36;;;;;;;61.50;14.15;;;;;;;11.15;59.79;100160.03;4424603;32;20109;-92
2022/11/09 08:19:01;;;;;;;45.88;14.82;;;;;;;11.01;59.79;100152.56;4411918;32;20143;-92
2022/11/09 08:21:27;;;;;;;54.28;14.75;;;;;;;11.08;59.80;100152.34;4411967;32;20117;-92
2022/11/09 08:23:52;;;;;;;47.22;14.38;;;;;;;11.07;59.80;100145.44;4411235;32;20458;-91
2022/11/09 08:26:18;;;;;;;42.03;14.93;;;;;;;10.99;59.79;100150.00;4410857;32;20125;-92
2022/11/09 08:28:43;;;;;;;53.25;16.73;;;;;;;11.12;59.79;100145.34;4411582;32;20171;-91
2022/11/09 08:31:08;;;;;;;57.42;16.77;;;;;;;11.23;59.80;100137.22;4424478;32;20536;-92
2022/11/09 08:33:38;;;;;;;61.47;16.92;;;;;;;11.21;59.79;100146.81;4414173;32;20085;-92
2022/11/09 08:36:07;;;;;;;;;;;;;;;11.26;59.80;100145.78;4405986;32;20089;-91
2022/11/09 08:38:33;;;;;;;57.03;17.37;;;;;;;11.33;59.80;100144.69;4426720;32;20025;-92
2022/11/09 08:40:58;;;;;;;45.53;14.98;;;;;;;11.28;59.80;100143.13;4414013;32;20429;-93
2022/11/09 08:43:24;;;;;;;66.70;17.62;;;;;;;11.30;59.79;100139.56;4413569;32;29964;-93
2022/11/09 08:45:49;;;;;;;48.05;17.25;;;;;;;11.27;59.80;100138.81;4414176;32;20171;-93
2022/11/09 08:48:14;;;;;;;63.25;16.92;;;;;;;11.24;59.80;100144.12;4412350;32;29387;-92
2022/11/09 08:50:40;;;;;;;52.65;16.75;;;;;;;11.28;59.80;100143.97;4411295;32;22821;-92
2022/11/09 08:53:06;;;;;;;47.25;16.80;;;;;;;11.24;59.80;100139.75;4410982;32;32236;-92
2022/11/09 08:55:32;;;;;;;67.55;18.08;;;;;;;11.39;59.81;100138.47;4414400;32;20093;-92
2022/11/09 08:57:58;;;;;;;43.08;15.27;;;;;;;11.54;59.82;100137.16;4414257;32;20139;-92
2022/11/09 09:00:24;;;;;;;53.10;18.37;;;;;;;11.42;59.81;100142.75;4426898;32;20126;-92
2022/11/09 09:02:49;;;;;;;50.97;17.73;;;;;;;11.49;59.80;100152.94;4414514;32;20125;-92
2022/11/09 09:05:16;;;;;;;53.60;16.25;;;;;;;11.32;59.80;100143.00;4414805;32;20597;-91
2022/11/09 09:07:41;;;;;;;60.05;18.05;;;;;;;11.48;59.81;100145.16;4425311;32;20637;-91
2022/11/09 09:10:07;;;;;;;48.55;17.85;;;;;;;11.47;59.81;100144.31;4411710;32;20561;-92
2022/11/09 09:12:32;;;;;;;55.10;18.87;;;;;;;11.44;59.81;100148.78;4412355;32;20351;-91
2022/11/09 09:14:58;;;;;;;54.17;17.75;;;;;;;11.49;59.81;100139.91;4423676;32;20097;-91
2022/11/09 09:17:23;;;;;;;49.35;18.00;;;;;;;11.54;59.82;100143.22;4416330;32;20190;-91
2022/11/09 09:19:48;;;;;;;44.83;17.87;;;;;;;11.65;59.82;100137.72;4410587;32;20156;-91
2022/11/09 09:22:14;;;;;;;69.05;24.98;;;;;;;11.81;59.82;100138.97;4420043;32;20119;-92
2022/11/09 09:24:39;;;;;;;54.50;24.65;;;;;;;11.83;59.83;100139.78;4436663;32;20132;-91
2022/11/09 09:27:05;;;;;;;55.17;21.85;;;;;;;11.87;59.82;100133.56;4421962;32;20121;-91
2022/11/09 09:29:30;;;;;;;49.13;17.67;;;;;;;11.79;59.83;100135.53;4415147;32;20160;-91
2022/11/09 09:31:56;;;;;;;50.20;17.27;;;;;;;11.87;59.83;100136.19;4413099;32;22192;-92
2022/11/09 09:34:21;;;;;;;57.58;18.87;;;;;;;11.85;59.83;100137.12;4426272;32;20153;-91
2022/11/09 09:36:46;;;;;;;46.95;18.05;;;;;;;11.74;59.83;100144.38;4412687;32;25673;-91
2022/11/09 09:39:12;;;;;;;50.88;17.33;;;;;;;11.71;59.83;100141.87;4414696;32;20105;-92
2022/11/09 09:41:40;;;;;;;52.97;19.83;;;;;;;11.90;59.84;100138.69;4428173;32;20104;-91
2022/11/09 09:44:27;;;;;;;45.67;17.65;;;;;;;11.90;59.83;100130.00;4428255;32;20495;-91
2022/11/09 09:47:08;;;;;;;46.17;18.95;;;;;;;11.91;59.83;100129.97;4440718;32;20128;-91
2022/11/09 09:49:35;;;;;;;49.60;18.85;;;;;;;11.93;59.83;100130.75;4440761;32;20136;-91
2022/11/09 09:52:26;;;;;;;57.60;19.87;;;;;;;11.80;59.82;100129.44;4415417;32;20156;-91
2022/11/09 09:54:53;;;;;;;;;;;;;;;11.88;59.83;100127.47;4431359;32;20093;-91
2022/11/09 09:57:20;;;;;;;51.37;17.08;;;;;;;12.10;59.84;100126.78;4428438;32;20025;-90
2022/11/09 09:59:52;;;;;;;57.13;20.10;;;;;;;11.95;59.83;100118.53;4428215;32;20101;-90
2022/11/09 10:02:27;;;;;;;57.35;20.10;;;;;;;11.79;59.83;100119.91;4415303;32;20444;-91
2022/11/09 10:04:55;;;;;;;54.38;19.25;;;;;;;11.93;59.83;100112.50;4428961;32;20392;-90
2022/11/09 10:07:27;;;;;;;51.80;21.05;;;;;;;11.94;59.83;100108.13;4428204;32;20117;-91
2022/11/09 10:10:16;;;;;;;54.53;19.40;;;;;;;11.99;59.84;100111.44;4415663;32;20138;-91
2022/11/09 10:12:44;;;;;;;56.45;20.25;;;;;;;11.99;59.84;100103.62;4440168;32;20168;-90
2022/11/09 10:15:16;;;;;;;56.33;20.62;;;;;;;12.05;59.84;100106.03;4433654;32;20123;-91
2022/11/09 10:17:44;;;;;;;59.85;21.62;;;;;;;12.23;59.85;100104.59;4450551;32;20169;-91
2022/11/09 10:20:34;;;;;;;59.15;20.60;;;;;;;12.14;59.85;100112.72;4438101;32;20143;-91
2022/11/09 10:23:34;;;;;;;59.10;21.15;;;;;;;12.31;59.86;100099.97;4402489;32;20115;-91
2022/11/09 10:26:22;;;;;;;59.97;22.47;;;;;;;12.26;59.85;100107.09;4438188;32;20166;-91
2022/11/09 10:28:51;;;;;;;59.60;22.60;;;;;;;12.18;59.85;100102.13;4430166;32;20176;-91
2022/11/09 10:31:19;;;;;;;56.88;22.98;;;;;;;12.17;59.85;100105.63;4428008;32;20112;-90
2022/11/09 10:33:55;;;;;;;65.53;24.92;;;;;;;12.38;59.86;100093.63;4427855;32;20101;-91
2022/11/09 10:36:29;;;;;;;68.15;23.83;;;;;;;12.26;59.85;100094.87;4413452;32;20101;-90
2022/11/09 10:38:57;;;;;;;56.55;22.60;;;;;;;12.26;59.85;100096.66;4412511;32;20682;-91
2022/11/09 10:41:30;;;;;;;60.80;22.83;;;;;;;12.36;59.86;100094.59;4413132;32;20121;-90
2022/11/09 10:43:55;;;;;;;51.70;21.60;;;;;;;12.34;59.85;100091.19;4437908;32;20482;-91
2022/11/09 10:46:21;;;;;;;61.08;22.87;;;;;;;12.41;59.86;100083.09;4411733;32;28075;-91
2022/11/09 10:48:46;;;;;;;60.53;24.60;;;;;;;12.35;59.85;100080.69;4428684;32;20105;-90
2022/11/09 10:51:29;;;;;;;61.88;23.73;;;;;;;12.47;59.87;100080.25;4417240;32;20163;-91
2022/11/09 10:54:17;;;;;;;64.30;22.70;;;;;;;12.43;59.86;100077.81;4424858;32;20089;-91
2022/11/09 10:56:58;;;;;;;64.90;25.05;;;;;;;12.43;59.86;100072.59;4425819;32;20448;-90
2022/11/09 10:59:49;;;;;;;63.53;23.52;;;;;;;12.48;59.86;100073.28;4437877;32;20097;-90
2022/11/09 11:02:27;;;;;;;68.12;23.85;;;;;;;12.39;59.86;100065.78;4424644;32;20554;-90
2022/11/09 11:05:05;;;;;;;55.45;22.02;;;;;;;12.43;59.86;100069.97;4448518;32;20152;-90
2022/11/09 11:07:30;;;;;;;66.30;24.87;;;;;;;12.51;59.87;100067.94;4437602;32;20117;-90